createdAt,value
2022-09-15T00:01:28.300Z,99385.84
2022-09-15T00:03:57.460Z,99385.16
2022-09-15T00:06:26.197Z,99393.56
2022-09-15T00:08:55.039Z,99358.16
2022-09-15T00:11:26.011Z,99394.25
2022-09-15T00:13:57.127Z,99380.50
2022-09-15T00:16:28.062Z,99387.31
2022-09-15T00:18:56.958Z,99386.78
2022-09-15T00:21:27.707Z,99369.16
2022-09-15T00:23:57.217Z,99379.09
2022-09-15T00:26:28.494Z,99371.75
2022-09-15T00:29:00.203Z,99368.94
2022-09-15T00:31:31.223Z,99365.81
2022-09-15T00:34:02.578Z,99369.47
2022-09-15T00:36:31.568Z,99369.06
2022-09-15T00:39:00.744Z,99366.81
2022-09-15T00:41:29.980Z,99380.41
2022-09-15T00:44:02.649Z,99344.41
2022-09-15T00:46:33.787Z,99368.66
2022-09-15T00:49:08.503Z,99382.44
2022-09-15T00:51:47.260Z,99374.25
2022-09-15T00:54:19.920Z,99358.66
2022-09-15T00:56:52.821Z,99369.13
2022-09-15T00:59:25.571Z,99369.41
2022-09-15T01:02:02.424Z,99368.75
2022-09-15T01:04:31.545Z,99380.13
2022-09-15T01:07:06.317Z,99340.25
2022-09-15T01:09:39.585Z,99361.31
2022-09-15T01:12:08.737Z,99365.81
2022-09-15T01:14:38.936Z,99366.22
2022-09-15T01:17:22.035Z,99367.97
2022-09-15T01:20:17.348Z,99349.97
2022-09-15T01:23:07.197Z,99358.09
2022-09-15T01:25:57.446Z,99348.31
2022-09-15T01:28:43.659Z,99339.50
2022-09-15T01:31:22.502Z,99324.97
2022-09-15T01:33:58.776Z,99335.19
2022-09-15T01:36:35.877Z,99334.25
2022-09-15T01:39:09.063Z,99332.31
2022-09-15T01:41:45.539Z,99327.34
2022-09-15T01:44:17.842Z,99323.28
2022-09-15T01:46:51.140Z,99300.72
2022-09-15T01:49:23.869Z,99317.03
2022-09-15T01:51:55.232Z,99323.13
2022-09-15T01:54:30.071Z,99314.13
2022-09-15T01:56:59.118Z,99309.41
2022-09-15T01:59:27.926Z,99323.00
2022-09-15T02:02:02.816Z,99316.72
2022-09-15T02:04:36.728Z,99314.97
2022-09-15T02:07:12.434Z,99308.31
2022-09-15T02:09:49.371Z,99314.84
2022-09-15T02:12:34.138Z,99315.78
2022-09-15T02:15:09.435Z,99322.56
2022-09-15T02:17:45.759Z,99330.00
2022-09-15T02:20:23.771Z,99298.09
2022-09-15T02:22:57.915Z,99314.38
2022-09-15T02:25:32.874Z,99315.09
2022-09-15T02:28:05.718Z,99318.84
2022-09-15T02:30:37.351Z,99316.31
2022-09-15T02:33:11.284Z,99309.66
2022-09-15T02:35:41.821Z,99311.66
2022-09-15T02:38:12.219Z,99307.97
2022-09-15T02:40:43.203Z,99313.31
2022-09-15T02:43:14.397Z,99314.31
2022-09-15T02:45:44.037Z,99298.03
2022-09-15T02:48:15.005Z,99313.00
2022-09-15T02:50:43.861Z,99296.03
2022-09-15T02:53:12.690Z,99306.63
2022-09-15T02:55:42.026Z,99295.22
2022-09-15T02:58:10.891Z,99230.56
2022-09-15T03:00:39.747Z,99302.97
2022-09-15T03:03:08.490Z,99291.00
2022-09-15T03:05:38.668Z,99293.88
2022-09-15T03:08:07.661Z,99230.84
2022-09-15T03:10:36.496Z,99293.22
2022-09-15T03:13:05.238Z,99282.69
2022-09-15T03:15:34.380Z,99287.59
2022-09-15T03:18:03.159Z,99252.56
2022-09-15T03:20:31.924Z,99270.97
2022-09-15T03:23:03.416Z,99266.47
2022-09-15T03:25:33.245Z,99261.44
2022-09-15T03:28:02.220Z,99273.53
2022-09-15T03:30:30.990Z,99256.09
2022-09-15T03:33:00.949Z,99268.47
2022-09-15T03:35:29.622Z,99251.09
2022-09-15T03:37:58.351Z,99257.44
2022-09-15T03:40:28.882Z,99249.72
2022-09-15T03:42:57.615Z,99265.47
2022-09-15T03:45:26.517Z,99260.47
2022-09-15T03:47:55.316Z,99260.16
2022-09-15T03:50:24.047Z,99242.03
2022-09-15T03:52:56.718Z,99248.41
2022-09-15T03:55:29.169Z,99256.78
2022-09-15T03:57:57.978Z,99239.84
2022-09-15T04:00:26.926Z,99252.91
2022-09-15T04:02:56.159Z,99251.09
2022-09-15T04:05:24.906Z,99249.44
2022-09-15T04:07:53.934Z,99254.94
2022-09-15T04:10:25.815Z,99257.13
2022-09-15T04:12:56.444Z,99260.97
2022-09-15T04:15:25.223Z,99245.22
2022-09-15T04:17:54.323Z,99251.59
2022-09-15T04:20:23.059Z,99263.47
2022-09-15T04:22:51.698Z,99269.84
2022-09-15T04:25:21.377Z,99273.16
2022-09-15T04:27:51.586Z,99280.88
2022-09-15T04:30:22.307Z,99285.25
2022-09-15T04:32:51.868Z,99267.16
2022-09-15T04:35:22.100Z,99269.13
2022-09-15T04:37:51.640Z,99263.56
2022-09-15T04:40:20.518Z,99272.63
2022-09-15T04:42:49.234Z,99267.41
2022-09-15T04:45:19.397Z,99237.41
2022-09-15T04:47:51.808Z,99180.41
2022-09-15T04:50:23.989Z,99222.56
2022-09-15T04:53:04.268Z,99223.16
2022-09-15T04:55:33.809Z,99236.91
2022-09-15T04:58:03.232Z,99217.06
2022-09-15T05:00:34.274Z,99231.25
2022-09-15T05:03:04.567Z,99225.34
2022-09-15T05:05:35.534Z,99232.19
2022-09-15T05:08:04.556Z,99216.28
2022-09-15T05:10:33.594Z,99230.59
2022-09-15T05:13:02.320Z,99229.25
2022-09-15T05:15:30.991Z,99210.13
2022-09-15T05:17:59.887Z,99227.00
2022-09-15T05:20:30.001Z,99210.16
2022-09-15T05:22:58.820Z,99218.56
2022-09-15T05:25:28.404Z,99227.44
2022-09-15T05:27:57.421Z,99211.66
2022-09-15T05:30:38.558Z,99212.84
2022-09-15T05:33:08.489Z,99188.91
2022-09-15T05:35:39.236Z,99191.13
2022-09-15T05:38:08.082Z,99209.44
2022-09-15T05:40:36.858Z,99189.88
2022-09-15T05:43:05.744Z,99165.31
2022-09-15T05:45:34.886Z,99202.66
2022-09-15T05:48:04.799Z,99198.63
2022-09-15T05:50:33.588Z,99152.28
2022-09-15T05:53:03.663Z,99211.94
2022-09-15T05:55:37.931Z,99219.94
2022-09-15T05:58:06.742Z,99221.56
2022-09-15T06:00:36.354Z,99230.06
2022-09-15T06:03:05.435Z,99240.69
2022-09-15T06:05:34.368Z,99237.06
2022-09-15T06:08:04.721Z,99238.28
2022-09-15T06:10:34.035Z,99226.41
2022-09-15T06:13:03.390Z,99232.66
2022-09-15T06:15:34.360Z,99229.34
2022-09-15T06:18:05.034Z,99223.94
2022-09-15T06:20:37.022Z,99234.44
2022-09-15T06:23:07.526Z,99222.94
2022-09-15T06:25:37.192Z,99220.06
2022-09-15T06:28:06.034Z,99234.81
2022-09-15T06:30:34.925Z,99227.38
2022-09-15T06:33:24.632Z,99214.22
2022-09-15T06:35:53.488Z,99207.38
2022-09-15T06:38:23.781Z,99202.84
2022-09-15T06:40:57.404Z,99199.16
2022-09-15T06:43:26.551Z,99173.66
2022-09-15T06:46:04.264Z,99196.94
2022-09-15T06:48:33.381Z,99206.00
2022-09-15T06:51:02.928Z,99197.56
2022-09-15T06:53:34.309Z,99183.66
2022-09-15T06:56:04.461Z,99180.94
2022-09-15T06:58:35.180Z,99174.72
2022-09-15T07:01:05.492Z,99197.63
2022-09-15T07:03:34.344Z,99203.22
2022-09-15T07:06:04.403Z,99199.94
2022-09-15T07:08:35.085Z,99188.66
2022-09-15T07:11:04.228Z,99199.31
2022-09-15T07:13:33.435Z,99196.03
2022-09-15T07:16:04.499Z,99185.28
2022-09-15T07:18:33.716Z,99182.81
2022-09-15T07:21:04.036Z,99191.69
2022-09-15T07:23:35.141Z,99191.28
2022-09-15T07:26:09.407Z,99192.69
2022-09-15T07:28:39.273Z,99167.91
2022-09-15T07:31:10.547Z,99198.47
2022-09-15T07:33:39.606Z,99164.25
2022-09-15T07:36:12.354Z,99192.63
2022-09-15T07:38:44.423Z,99184.09
2022-09-15T07:41:15.041Z,99200.03
2022-09-15T07:43:47.467Z,99182.13
2022-09-15T07:46:16.752Z,99186.50
2022-09-15T07:48:46.841Z,99183.13
2022-09-15T07:51:16.391Z,99165.44
2022-09-15T07:53:48.548Z,99175.22
2022-09-15T07:56:18.872Z,99171.94
2022-09-15T07:58:49.113Z,99177.06
2022-09-15T08:01:19.359Z,99168.50
2022-09-15T08:03:50.260Z,99165.47
2022-09-15T08:06:20.799Z,99160.84
2022-09-15T08:08:56.358Z,99167.75
2022-09-15T08:11:29.470Z,99157.38
2022-09-15T08:14:02.186Z,99165.69
2022-09-15T08:16:31.286Z,99146.69
2022-09-15T08:19:01.008Z,99167.31
2022-09-15T08:21:30.047Z,99163.78
2022-09-15T08:24:01.308Z,99162.16
2022-09-15T08:26:31.377Z,99165.91
2022-09-15T08:29:00.770Z,99166.69
2022-09-15T08:31:30.684Z,99162.94
2022-09-15T08:34:03.970Z,99150.03
2022-09-15T08:36:32.862Z,99171.19
2022-09-15T08:39:04.584Z,99157.94
2022-09-15T08:41:36.941Z,99143.53
2022-09-15T08:44:20.776Z,99169.09
2022-09-15T08:46:54.347Z,99156.84
2022-09-15T08:49:47.803Z,99154.66
2022-09-15T08:52:23.416Z,99151.75
2022-09-15T08:54:57.170Z,99157.78
2022-09-15T08:57:27.196Z,99166.34
2022-09-15T08:59:56.405Z,99164.53
2022-09-15T09:02:56.318Z,99156.63
2022-09-15T09:05:46.233Z,99152.69
2022-09-15T09:08:28.389Z,99161.59
2022-09-15T09:11:04.121Z,99154.75
2022-09-15T09:13:40.930Z,99152.25
2022-09-15T09:16:44.148Z,99140.53
2022-09-15T09:19:41.400Z,99136.03
2022-09-15T09:22:15.160Z,99136.75
2022-09-15T09:24:45.584Z,99139.34
2022-09-15T09:27:18.385Z,99146.84
2022-09-15T09:29:50.282Z,99141.03
2022-09-15T09:32:24.643Z,99149.13
2022-09-15T09:35:02.150Z,99145.34
2022-09-15T09:37:31.348Z,99141.84
2022-09-15T09:40:00.275Z,99138.94
2022-09-15T09:42:32.910Z,99142.00
2022-09-15T09:45:01.806Z,99137.06
2022-09-15T09:47:31.308Z,99141.69
2022-09-15T09:50:00.597Z,99138.28
2022-09-15T09:52:40.667Z,99142.22
2022-09-15T09:55:23.126Z,99152.88
2022-09-15T09:57:53.143Z,99136.31
2022-09-15T10:00:36.066Z,99141.78
2022-09-15T10:03:14.270Z,99147.94
2022-09-15T10:05:43.870Z,99151.78
2022-09-15T10:08:19.515Z,99146.31
2022-09-15T10:10:52.555Z,99152.19
2022-09-15T10:13:23.033Z,99145.94
2022-09-15T10:15:55.781Z,99151.41
2022-09-15T10:18:32.014Z,99150.94
2022-09-15T10:21:02.660Z,99155.72
2022-09-15T10:23:32.824Z,99092.44
2022-09-15T10:26:20.522Z,99151.38
2022-09-15T10:29:16.331Z,99143.47
2022-09-15T10:31:46.294Z,99138.69
2022-09-15T10:34:30.587Z,99140.88
2022-09-15T10:37:15.555Z,99140.78
2022-09-15T10:39:53.567Z,99143.06
2022-09-15T10:42:46.613Z,99117.16
2022-09-15T10:45:26.861Z,99118.75
2022-09-15T10:48:07.315Z,99115.63
2022-09-15T10:50:49.443Z,99119.06
2022-09-15T10:55:59.576Z,99112.41
2022-09-15T10:58:50.422Z,99101.75
2022-09-15T11:01:33.428Z,99114.97
2022-09-15T11:04:14.802Z,99072.13
2022-09-15T11:06:51.506Z,99106.91
2022-09-15T11:09:23.885Z,99101.25
2022-09-15T11:12:03.107Z,99102.72
2022-09-15T11:14:51.803Z,99103.47
2022-09-15T11:17:37.706Z,99101.81
2022-09-15T11:20:26.105Z,99108.47
2022-09-15T11:23:01.093Z,99104.38
2022-09-15T11:25:33.822Z,99104.69
2022-09-15T11:28:10.169Z,99088.00
2022-09-15T11:30:47.639Z,99090.63
2022-09-15T11:33:22.404Z,99099.03
2022-09-15T11:35:56.835Z,99096.06
2022-09-15T11:38:37.241Z,99095.69
2022-09-15T11:41:21.153Z,99086.84
2022-09-15T11:44:00.356Z,99083.84
2022-09-15T11:46:48.446Z,99086.03
2022-09-15T11:49:24.718Z,99084.84
2022-09-15T11:52:01.632Z,99075.06
2022-09-15T11:54:38.810Z,99073.91
2022-09-15T11:57:15.355Z,99015.13
2022-09-15T11:59:48.503Z,99070.34
2022-09-15T12:02:21.183Z,99066.25
2022-09-15T12:05:03.407Z,99056.03
2022-09-15T12:07:38.670Z,99055.00
2022-09-15T12:10:16.350Z,99058.25
2022-09-15T12:12:46.869Z,99054.81
2022-09-15T12:15:18.546Z,99055.75
2022-09-15T12:17:54.074Z,99051.22
2022-09-15T12:20:29.814Z,99033.41
2022-09-15T12:23:02.261Z,99049.84
2022-09-15T12:25:36.568Z,99065.16
2022-09-15T12:28:28.704Z,99059.22
2022-09-15T12:31:22.822Z,99038.66
2022-09-15T12:33:55.810Z,99061.19
2022-09-15T12:36:47.767Z,99057.19
2022-09-15T12:39:27.578Z,99052.91
2022-09-15T12:42:05.132Z,99052.97
2022-09-15T12:44:37.404Z,99042.94
2022-09-15T12:47:17.094Z,99050.38
2022-09-15T12:49:48.789Z,99034.50
2022-09-15T12:52:22.002Z,99048.38
2022-09-15T12:54:54.004Z,99051.84
2022-09-15T12:57:28.491Z,99045.63
2022-09-15T13:00:33.379Z,99050.28
2022-09-15T13:03:03.030Z,99050.06
2022-09-15T13:06:12.144Z,99048.59
2022-09-15T13:08:56.760Z,99038.84
2022-09-15T13:11:38.410Z,99060.69
2022-09-15T13:14:26.094Z,99062.38
2022-09-15T13:17:01.016Z,99062.59
2022-09-15T13:19:41.226Z,99053.88
2022-09-15T13:22:20.461Z,99020.59
2022-09-15T13:24:59.179Z,99024.53
2022-09-15T13:27:36.884Z,99041.16
2022-09-15T13:30:24.268Z,99038.09
2022-09-15T13:33:01.341Z,99047.81
2022-09-15T13:35:54.348Z,99051.75
2022-09-15T13:38:42.288Z,99052.81
2022-09-15T13:41:43.116Z,99047.81
2022-09-15T13:44:56.856Z,99053.19
2022-09-15T13:47:35.144Z,99034.50
2022-09-15T13:50:15.557Z,99040.34
2022-09-15T13:53:07.837Z,99047.94
2022-09-15T13:55:39.440Z,99049.38
2022-09-15T14:01:04.739Z,98908.44
2022-09-15T14:03:40.575Z,98960.91
2022-09-15T14:06:15.412Z,99039.91
2022-09-15T14:08:47.036Z,98981.03
2022-09-15T14:11:18.419Z,99037.19
2022-09-15T14:13:51.586Z,99026.56
2022-09-15T14:16:34.855Z,99006.84
2022-09-15T14:19:06.008Z,99012.47
2022-09-15T14:21:36.344Z,99020.47
2022-09-15T14:24:07.174Z,98975.97
2022-09-15T14:26:37.117Z,99028.56
2022-09-15T14:29:08.581Z,99018.06
2022-09-15T14:31:40.372Z,98995.75
2022-09-15T14:34:18.577Z,99015.97
2022-09-15T14:36:47.874Z,98994.53
2022-09-15T14:39:20.202Z,99011.16
2022-09-15T14:41:50.408Z,98998.25
2022-09-15T14:47:20.613Z,99003.44
2022-09-15T14:49:50.024Z,99001.09
2022-09-15T14:52:29.878Z,98999.44
2022-09-15T14:55:04.260Z,99001.25
2022-09-15T14:57:38.169Z,99000.47
2022-09-15T15:00:12.455Z,98995.84
2022-09-15T15:02:53.601Z,98989.56
2022-09-15T15:05:27.721Z,98977.50
2022-09-15T15:07:57.106Z,98985.94
2022-09-15T15:10:33.466Z,98936.56
2022-09-15T15:13:08.287Z,98995.69
2022-09-15T15:15:40.488Z,98995.28
2022-09-15T15:18:39.056Z,98959.75
2022-09-15T15:21:28.627Z,98980.59
2022-09-15T15:23:57.666Z,98987.28
2022-09-15T15:26:34.820Z,98967.09
2022-09-15T15:29:04.220Z,98986.94
2022-09-15T15:31:34.414Z,98991.91
2022-09-15T15:34:06.159Z,98988.19
2022-09-15T15:36:36.951Z,98963.63
2022-09-15T15:39:07.897Z,98987.25
2022-09-15T15:41:41.953Z,98989.78
2022-09-15T15:44:28.088Z,98982.34
2022-09-15T15:47:01.858Z,98981.28
2022-09-15T15:49:32.870Z,98976.53
2022-09-15T15:52:03.048Z,98973.59
2022-09-15T15:54:35.624Z,98973.91
2022-09-15T15:57:23.058Z,98966.03
2022-09-15T15:59:55.552Z,98976.00
2022-09-15T16:02:27.920Z,98973.44
2022-09-15T16:04:56.888Z,98968.69
2022-09-15T16:07:31.095Z,98967.19
2022-09-15T16:10:02.592Z,98960.19
2022-09-15T16:12:33.270Z,98961.81
2022-09-15T16:15:11.922Z,98967.16
2022-09-15T16:17:46.008Z,98951.03
2022-09-15T16:20:16.365Z,98942.25
2022-09-15T16:22:45.140Z,98949.69
2022-09-15T16:25:18.380Z,98958.59
2022-09-15T16:27:47.214Z,98955.44
2022-09-15T16:30:16.000Z,98954.72
2022-09-15T16:32:45.964Z,98946.66
2022-09-15T16:35:24.358Z,98939.34
2022-09-15T16:37:53.125Z,98951.38
2022-09-15T16:40:21.879Z,98943.28
2022-09-15T16:42:50.628Z,98948.47
2022-09-15T16:45:25.831Z,98948.03
2022-09-15T16:47:56.416Z,98943.81
2022-09-15T16:50:25.159Z,98930.88
2022-09-15T16:52:53.972Z,98936.75
2022-09-15T16:55:35.871Z,98941.97
2022-09-15T16:58:05.857Z,98949.13
2022-09-15T17:00:37.214Z,98941.81
2022-09-15T17:03:09.160Z,98941.66
2022-09-15T17:05:43.044Z,98934.38
2022-09-15T17:08:14.513Z,98937.44
2022-09-15T17:10:43.969Z,98862.88
2022-09-15T17:13:16.214Z,98919.41
2022-09-15T17:15:47.419Z,98917.19
2022-09-15T17:18:18.792Z,98934.00
2022-09-15T17:20:49.625Z,98925.91
2022-09-15T17:23:21.170Z,98926.72
2022-09-15T17:25:53.217Z,98917.03
2022-09-15T17:28:23.880Z,98930.09
2022-09-15T17:30:54.658Z,98928.56
2022-09-15T17:33:24.824Z,98915.63
2022-09-15T17:35:53.870Z,98927.56
2022-09-15T17:38:23.425Z,98913.41
2022-09-15T17:40:55.314Z,98925.00
2022-09-15T17:43:25.565Z,98912.06
2022-09-15T17:45:54.864Z,98932.84
2022-09-15T17:48:25.515Z,98922.88
2022-09-15T17:50:54.522Z,98933.38
2022-09-15T17:53:26.751Z,98930.00
2022-09-15T17:55:56.769Z,98910.63
2022-09-15T17:58:26.859Z,98923.84
2022-09-15T18:00:56.545Z,98892.31
2022-09-15T18:03:30.056Z,98916.25
2022-09-15T18:06:01.193Z,98917.00
2022-09-15T18:08:30.188Z,98914.06
2022-09-15T18:10:59.201Z,98902.47
2022-09-15T18:13:30.066Z,98895.25
2022-09-15T18:16:04.191Z,98890.19
2022-09-15T18:18:34.511Z,98904.31
2022-09-15T18:21:09.873Z,98898.75
2022-09-15T18:23:39.295Z,98884.47
2022-09-15T18:26:08.459Z,98892.94
2022-09-15T18:28:37.590Z,98887.28
2022-09-15T18:31:06.887Z,98892.94
2022-09-15T18:33:37.569Z,98895.16
2022-09-15T18:36:08.467Z,98902.69
2022-09-15T18:38:37.290Z,98893.09
2022-09-15T18:41:11.924Z,98894.34
2022-09-15T18:43:41.510Z,98882.88
2022-09-15T18:46:10.629Z,98882.88
2022-09-15T18:48:41.001Z,98893.97
2022-09-15T18:51:10.820Z,98885.69
2022-09-15T18:53:41.143Z,98881.97
2022-09-15T18:56:14.037Z,98803.44
2022-09-15T18:58:42.728Z,98869.50
2022-09-15T19:01:11.630Z,98865.63
2022-09-15T19:03:44.934Z,98868.09
2022-09-15T19:06:13.837Z,98879.56
2022-09-15T19:08:42.526Z,98870.19
2022-09-15T19:11:11.569Z,98862.09
2022-09-15T19:13:40.513Z,98852.16
2022-09-15T19:16:10.644Z,98873.94
2022-09-15T19:18:39.676Z,98877.47
2022-09-15T19:21:12.041Z,98877.47
2022-09-15T19:23:41.088Z,98875.06
2022-09-15T19:26:13.759Z,98885.03
2022-09-15T19:28:42.897Z,98884.59
2022-09-15T19:31:12.415Z,98878.81
2022-09-15T19:33:41.866Z,98874.25
2022-09-15T19:36:28.026Z,98867.00
2022-09-15T19:38:59.289Z,98860.59
2022-09-15T19:41:32.663Z,98864.31
2022-09-15T19:44:03.439Z,98869.28
2022-09-15T19:46:32.597Z,98835.97
2022-09-15T19:49:03.865Z,98857.47
2022-09-15T19:51:37.645Z,98823.16
2022-09-15T19:54:07.259Z,98857.09
2022-09-15T19:56:36.486Z,98857.91
2022-09-15T19:59:37.328Z,98850.91
2022-09-15T20:02:16.058Z,98837.78
2022-09-15T20:05:13.499Z,98860.53
2022-09-15T20:08:13.680Z,98862.59
2022-09-15T20:10:42.932Z,98864.28
2022-09-15T20:13:11.944Z,98865.50
2022-09-15T20:15:44.745Z,98836.19
2022-09-15T20:18:14.920Z,98872.19
2022-09-15T20:20:47.719Z,98852.19
2022-09-15T20:23:18.227Z,98841.94
2022-09-15T20:25:57.365Z,98876.00
2022-09-15T20:28:30.311Z,98821.09
2022-09-15T20:31:04.270Z,98866.84
2022-09-15T20:33:34.622Z,98871.06
2022-09-15T20:36:05.018Z,98873.66
2022-09-15T20:38:36.828Z,98874.34
2022-09-15T20:41:07.128Z,98873.66
2022-09-15T20:43:37.648Z,98860.59
2022-09-15T20:46:08.924Z,98861.91
2022-09-15T20:48:39.300Z,98865.81
2022-09-15T20:51:10.226Z,98862.34
2022-09-15T20:53:41.831Z,98863.19
2022-09-15T20:56:10.993Z,98858.19
2022-09-15T20:58:40.848Z,98862.34
2022-09-15T21:01:12.514Z,98860.25
2022-09-15T21:03:43.252Z,98857.53
2022-09-15T21:06:15.111Z,98864.81
2022-09-15T21:08:45.539Z,98850.09
2022-09-15T21:11:16.006Z,98865.38
2022-09-15T21:13:45.589Z,98847.91
2022-09-15T21:16:17.307Z,98861.09
2022-09-15T21:18:46.778Z,98853.09
2022-09-15T21:21:20.631Z,98857.34
2022-09-15T21:23:53.782Z,98861.47
2022-09-15T21:26:25.233Z,98865.50
2022-09-15T21:28:55.807Z,98871.75
2022-09-15T21:31:27.070Z,98884.38
2022-09-15T21:33:57.086Z,98873.59
2022-09-15T21:36:28.000Z,98881.09
2022-09-15T21:39:00.745Z,98871.13
2022-09-15T21:41:31.969Z,98882.09
2022-09-15T21:44:01.217Z,98893.53
2022-09-15T21:46:32.435Z,98881.19
2022-09-15T21:49:03.051Z,98892.56
2022-09-15T21:51:32.163Z,98879.47
2022-09-15T21:54:02.527Z,98888.09
2022-09-15T21:56:31.722Z,98890.19
2022-09-15T21:59:00.615Z,98892.72
2022-09-15T22:01:32.763Z,98895.25
2022-09-15T22:04:03.881Z,98890.69
2022-09-15T22:06:34.810Z,98892.56
2022-09-15T22:09:08.398Z,98895.97
2022-09-15T22:11:38.100Z,98901.81
2022-09-15T22:14:19.776Z,98877.16
2022-09-15T22:16:49.168Z,98888.91
2022-09-15T22:19:18.076Z,98908.72
2022-09-15T22:21:47.002Z,98895.06
2022-09-15T22:24:18.258Z,98903.25
2022-09-15T22:26:47.168Z,98910.34
2022-09-15T22:29:16.188Z,98896.72
2022-09-15T22:31:45.348Z,98903.72
2022-09-15T22:34:14.248Z,98905.25
2022-09-15T22:36:43.164Z,98905.25
2022-09-15T22:39:16.326Z,98905.84
2022-09-15T22:41:46.791Z,98888.91
2022-09-15T22:44:22.221Z,98883.41
2022-09-15T22:46:52.277Z,98893.75
2022-09-15T22:49:21.175Z,98892.66
2022-09-15T22:51:50.066Z,98887.72
2022-09-15T22:54:18.957Z,98896.19
2022-09-15T22:56:49.310Z,98869.31
2022-09-15T22:59:18.228Z,98892.72
2022-09-15T23:01:47.287Z,98902.44
2022-09-15T23:04:16.523Z,98895.16
2022-09-15T23:06:45.693Z,98833.06
2022-09-15T23:09:15.827Z,98915.09
2022-09-15T23:11:44.617Z,98910.13
2022-09-15T23:14:16.390Z,98928.16
2022-09-15T23:16:45.651Z,98926.25
2022-09-15T23:19:14.876Z,98921.78
2022-09-15T23:21:43.712Z,98933.44
2022-09-15T23:24:14.020Z,98940.88
2022-09-15T23:26:42.829Z,98936.00
2022-09-15T23:29:11.536Z,98896.47
2022-09-15T23:31:41.799Z,98954.03
2022-09-15T23:34:10.538Z,98949.09
2022-09-15T23:36:39.448Z,98945.41
2022-09-15T23:39:08.214Z,98941.94
2022-09-15T23:41:39.043Z,98936.94
2022-09-15T23:44:08.019Z,98926.00
2022-09-15T23:46:37.041Z,98954.03
2022-09-15T23:49:07.520Z,98955.19
2022-09-15T23:51:36.413Z,98959.81
2022-09-15T23:54:05.408Z,98948.25
2022-09-15T23:56:34.351Z,98955.63
2022-09-15T23:59:03.195Z,98978.81
